sensor_id;sensor_type;location;lat;lon;timestamp;P1;durP1;ratioP1;P2;durP2;ratioP2
62616;SDS011;62539;51.190;6.808;2023-11-18T00:00:22;5.72;;;3.80;;
62616;SDS011;62539;51.190;6.808;2023-11-18T00:02:48;5.63;;;3.97;;
62616;SDS011;62539;51.190;6.808;2023-11-18T00:05:15;4.70;;;3.60;;
62616;SDS011;62539;51.190;6.808;2023-11-18T00:07:40;4.93;;;3.80;;
62616;SDS011;62539;51.190;6.808;2023-11-18T00:10:06;5.15;;;3.90;;
62616;SDS011;62539;51.190;6.808;2023-11-18T00:12:33;4.63;;;3.97;;
62616;SDS011;62539;51.190;6.808;2023-11-18T00:15:04;4.55;;;3.67;;
62616;SDS011;62539;51.190;6.808;2023-11-18T00:17:30;6.85;;;4.15;;
62616;SDS011;62539;51.190;6.808;2023-11-18T00:19:57;5.03;;;3.60;;
62616;SDS011;62539;51.190;6.808;2023-11-18T00:22:22;5.28;;;3.50;;
62616;SDS011;62539;51.190;6.808;2023-11-18T00:24:48;6.22;;;3.92;;
62616;SDS011;62539;51.190;6.808;2023-11-18T00:27:13;5.05;;;3.80;;
62616;SDS011;62539;51.190;6.808;2023-11-18T00:29:40;5.63;;;4.10;;
62616;SDS011;62539;51.190;6.808;2023-11-18T00:32:06;4.93;;;3.92;;
62616;SDS011;62539;51.190;6.808;2023-11-18T00:34:32;6.05;;;3.50;;
62616;SDS011;62539;51.190;6.808;2023-11-18T00:36:58;5.93;;;4.03;;
62616;SDS011;62539;51.190;6.808;2023-11-18T00:39:24;6.45;;;3.80;;
62616;SDS011;62539;51.190;6.808;2023-11-18T00:41:50;7.20;;;3.80;;
62616;SDS011;62539;51.190;6.808;2023-11-18T00:44:15;8.75;;;4.03;;
62616;SDS011;62539;51.190;6.808;2023-11-18T00:46:41;4.93;;;3.53;;
62616;SDS011;62539;51.190;6.808;2023-11-18T00:49:06;5.05;;;3.58;;
62616;SDS011;62539;51.190;6.808;2023-11-18T00:51:32;4.72;;;3.47;;
62616;SDS011;62539;51.190;6.808;2023-11-18T00:53:57;5.03;;;3.75;;
62616;SDS011;62539;51.190;6.808;2023-11-18T00:56:26;6.65;;;3.60;;
62616;SDS011;62539;51.190;6.808;2023-11-18T00:58:53;5.82;;;3.70;;
62616;SDS011;62539;51.190;6.808;2023-11-18T01:01:19;5.78;;;3.90;;
62616;SDS011;62539;51.190;6.808;2023-11-18T01:03:45;6.63;;;3.95;;
62616;SDS011;62539;51.190;6.808;2023-11-18T01:06:11;5.03;;;3.50;;
62616;SDS011;62539;51.190;6.808;2023-11-18T01:08:36;5.55;;;3.83;;
62616;SDS011;62539;51.190;6.808;2023-11-18T01:11:02;4.82;;;3.70;;
62616;SDS011;62539;51.190;6.808;2023-11-18T01:13:29;4.35;;;3.47;;
62616;SDS011;62539;51.190;6.808;2023-11-18T01:15:56;6.10;;;3.78;;
62616;SDS011;62539;51.190;6.808;2023-11-18T01:18:22;5.15;;;3.88;;
62616;SDS011;62539;51.190;6.808;2023-11-18T01:20:48;4.28;;;3.28;;
62616;SDS011;62539;51.190;6.808;2023-11-18T01:23:13;5.22;;;3.75;;
62616;SDS011;62539;51.190;6.808;2023-11-18T01:25:39;5.03;;;3.30;;
62616;SDS011;62539;51.190;6.808;2023-11-18T01:28:05;4.20;;;3.17;;
62616;SDS011;62539;51.190;6.808;2023-11-18T01:30:31;4.50;;;3.40;;
62616;SDS011;62539;51.190;6.808;2023-11-18T01:32:57;4.68;;;3.50;;
62616;SDS011;62539;51.190;6.808;2023-11-18T01:35:26;5.80;;;3.80;;
62616;SDS011;62539;51.190;6.808;2023-11-18T01:37:52;5.97;;;3.63;;
62616;SDS011;62539;51.190;6.808;2023-11-18T01:40:19;5.07;;;4.05;;
62616;SDS011;62539;51.190;6.808;2023-11-18T01:42:45;6.32;;;4.07;;
62616;SDS011;62539;51.190;6.808;2023-11-18T01:45:11;4.32;;;3.58;;
62616;SDS011;62539;51.190;6.808;2023-11-18T01:47:41;4.68;;;3.85;;
62616;SDS011;62539;51.190;6.808;2023-11-18T01:50:08;6.00;;;3.60;;
62616;SDS011;62539;51.190;6.808;2023-11-18T01:52:37;4.50;;;3.78;;
62616;SDS011;62539;51.190;6.808;2023-11-18T01:55:04;5.55;;;3.83;;
62616;SDS011;62539;51.190;6.808;2023-11-18T01:57:32;6.82;;;4.00;;
62616;SDS011;62539;51.190;6.808;2023-11-18T02:00:00;6.13;;;3.72;;
62616;SDS011;62539;51.190;6.808;2023-11-18T02:02:31;6.82;;;4.00;;
62616;SDS011;62539;51.190;6.808;2023-11-18T02:04:57;4.35;;;3.47;;
62616;SDS011;62539;51.190;6.808;2023-11-18T02:07:26;3.80;;;3.35;;
62616;SDS011;62539;51.190;6.808;2023-11-18T02:09:53;5.88;;;3.63;;
62616;SDS011;62539;51.190;6.808;2023-11-18T02:12:25;5.93;;;3.70;;
62616;SDS011;62539;51.190;6.808;2023-11-18T02:14:59;5.78;;;3.80;;
62616;SDS011;62539;51.190;6.808;2023-11-18T02:17:34;5.68;;;3.22;;
62616;SDS011;62539;51.190;6.808;2023-11-18T02:20:03;4.70;;;3.65;;
62616;SDS011;62539;51.190;6.808;2023-11-18T02:22:41;4.45;;;3.55;;
62616;SDS011;62539;51.190;6.808;2023-11-18T02:25:09;4.65;;;3.42;;
62616;SDS011;62539;51.190;6.808;2023-11-18T02:27:36;6.70;;;3.72;;
62616;SDS011;62539;51.190;6.808;2023-11-18T02:30:02;4.82;;;3.75;;
62616;SDS011;62539;51.190;6.808;2023-11-18T02:32:35;4.20;;;3.40;;
62616;SDS011;62539;51.190;6.808;2023-11-18T02:35:23;10.25;;;3.55;;
62616;SDS011;62539;51.190;6.808;2023-11-18T02:37:55;5.03;;;3.33;;
62616;SDS011;62539;51.190;6.808;2023-11-18T02:40:26;4.15;;;3.50;;
62616;SDS011;62539;51.190;6.808;2023-11-18T02:42:58;4.03;;;3.17;;
62616;SDS011;62539;51.190;6.808;2023-11-18T02:45:26;4.60;;;3.53;;
62616;SDS011;62539;51.190;6.808;2023-11-18T02:47:52;6.00;;;3.60;;
62616;SDS011;62539;51.190;6.808;2023-11-18T02:50:22;3.80;;;3.30;;
62616;SDS011;62539;51.190;6.808;2023-11-18T02:52:49;4.20;;;3.35;;
62616;SDS011;62539;51.190;6.808;2023-11-18T02:55:15;5.22;;;3.53;;
62616;SDS011;62539;51.190;6.808;2023-11-18T02:57:40;5.05;;;3.65;;
62616;SDS011;62539;51.190;6.808;2023-11-18T03:00:06;4.63;;;3.25;;
62616;SDS011;62539;51.190;6.808;2023-11-18T03:02:42;4.20;;;3.28;;
62616;SDS011;62539;51.190;6.808;2023-11-18T03:05:07;6.30;;;3.20;;
62616;SDS011;62539;51.190;6.808;2023-11-18T03:07:36;4.85;;;3.33;;
62616;SDS011;62539;51.190;6.808;2023-11-18T03:10:14;5.70;;;3.47;;
62616;SDS011;62539;51.190;6.808;2023-11-18T03:12:46;3.80;;;3.25;;
62616;SDS011;62539;51.190;6.808;2023-11-18T03:15:13;4.53;;;3.25;;
62616;SDS011;62539;51.190;6.808;2023-11-18T03:17:41;4.10;;;3.22;;
62616;SDS011;62539;51.190;6.808;2023-11-18T03:20:09;4.28;;;3.28;;
62616;SDS011;62539;51.190;6.808;2023-11-18T03:22:37;3.75;;;3.10;;
62616;SDS011;62539;51.190;6.808;2023-11-18T03:25:02;4.25;;;3.28;;
62616;SDS011;62539;51.190;6.808;2023-11-18T03:27:30;4.78;;;3.53;;
62616;SDS011;62539;51.190;6.808;2023-11-18T03:29:55;3.83;;;3.30;;
62616;SDS011;62539;51.190;6.808;2023-11-18T03:32:20;4.60;;;3.38;;
62616;SDS011;62539;51.190;6.808;2023-11-18T03:34:46;5.72;;;3.22;;
62616;SDS011;62539;51.190;6.808;2023-11-18T03:37:11;5.80;;;3.38;;
62616;SDS011;62539;51.190;6.808;2023-11-18T03:39:36;4.20;;;3.00;;
62616;SDS011;62539;51.190;6.808;2023-11-18T03:42:02;4.72;;;3.20;;
62616;SDS011;62539;51.190;6.808;2023-11-18T03:44:27;3.95;;;3.30;;
62616;SDS011;62539;51.190;6.808;2023-11-18T03:46:53;5.50;;;3.53;;
62616;SDS011;62539;51.190;6.808;2023-11-18T03:49:18;5.85;;;3.20;;
62616;SDS011;62539;51.190;6.808;2023-11-18T03:51:45;5.00;;;3.38;;
62616;SDS011;62539;51.190;6.808;2023-11-18T03:54:10;3.75;;;3.20;;
62616;SDS011;62539;51.190;6.808;2023-11-18T03:56:37;3.25;;;2.95;;
62616;SDS011;62539;51.190;6.808;2023-11-18T03:59:03;4.43;;;3.35;;
62616;SDS011;62539;51.190;6.808;2023-11-18T04:01:29;4.55;;;3.30;;
62616;SDS011;62539;51.190;6.808;2023-11-18T04:03:55;3.85;;;2.90;;
62616;SDS011;62539;51.190;6.808;2023-11-18T04:06:21;3.83;;;3.00;;
62616;SDS011;62539;51.190;6.808;2023-11-18T04:08:49;4.40;;;3.08;;
62616;SDS011;62539;51.190;6.808;2023-11-18T04:11:15;3.63;;;2.88;;
62616;SDS011;62539;51.190;6.808;2023-11-18T04:13:41;3.97;;;3.28;;
62616;SDS011;62539;51.190;6.808;2023-11-18T04:16:10;4.60;;;3.55;;
62616;SDS011;62539;51.190;6.808;2023-11-18T04:18:44;5.63;;;3.40;;
62616;SDS011;62539;51.190;6.808;2023-11-18T04:21:11;4.63;;;3.22;;
62616;SDS011;62539;51.190;6.808;2023-11-18T04:23:38;4.03;;;3.03;;
62616;SDS011;62539;51.190;6.808;2023-11-18T04:26:06;3.63;;;3.03;;
62616;SDS011;62539;51.190;6.808;2023-11-18T04:28:33;3.95;;;2.80;;
62616;SDS011;62539;51.190;6.808;2023-11-18T04:31:02;3.08;;;2.78;;
62616;SDS011;62539;51.190;6.808;2023-11-18T04:33:28;5.18;;;3.15;;
62616;SDS011;62539;51.190;6.808;2023-11-18T04:35:56;5.07;;;2.83;;
62616;SDS011;62539;51.190;6.808;2023-11-18T04:38:23;3.78;;;2.67;;
62616;SDS011;62539;51.190;6.808;2023-11-18T04:40:50;3.58;;;3.15;;
62616;SDS011;62539;51.190;6.808;2023-11-18T04:43:19;3.55;;;3.05;;
62616;SDS011;62539;51.190;6.808;2023-11-18T04:45:45;3.60;;;2.85;;
62616;SDS011;62539;51.190;6.808;2023-11-18T04:48:11;2.92;;;2.65;;
62616;SDS011;62539;51.190;6.808;2023-11-18T04:50:38;4.40;;;3.33;;
62616;SDS011;62539;51.190;6.808;2023-11-18T04:53:06;3.15;;;2.67;;
62616;SDS011;62539;51.190;6.808;2023-11-18T04:55:33;3.60;;;3.08;;
62616;SDS011;62539;51.190;6.808;2023-11-18T04:58:00;5.78;;;3.28;;
62616;SDS011;62539;51.190;6.808;2023-11-18T05:00:25;4.10;;;3.05;;
62616;SDS011;62539;51.190;6.808;2023-11-18T05:02:52;4.93;;;3.30;;
62616;SDS011;62539;51.190;6.808;2023-11-18T05:05:19;4.30;;;3.20;;
62616;SDS011;62539;51.190;6.808;2023-11-18T05:07:44;4.55;;;3.25;;
62616;SDS011;62539;51.190;6.808;2023-11-18T05:10:10;3.92;;;3.15;;
62616;SDS011;62539;51.190;6.808;2023-11-18T05:12:36;5.18;;;2.95;;
62616;SDS011;62539;51.190;6.808;2023-11-18T05:15:03;3.15;;;2.60;;
62616;SDS011;62539;51.190;6.808;2023-11-18T05:17:31;3.92;;;2.83;;
62616;SDS011;62539;51.190;6.808;2023-11-18T05:19:56;3.00;;;2.60;;
62616;SDS011;62539;51.190;6.808;2023-11-18T05:22:22;3.47;;;3.00;;
62616;SDS011;62539;51.190;6.808;2023-11-18T05:24:47;3.42;;;2.67;;
62616;SDS011;62539;51.190;6.808;2023-11-18T05:27:13;4.28;;;2.58;;
62616;SDS011;62539;51.190;6.808;2023-11-18T05:29:39;3.25;;;2.60;;
62616;SDS011;62539;51.190;6.808;2023-11-18T05:32:10;3.22;;;2.65;;
62616;SDS011;62539;51.190;6.808;2023-11-18T05:34:35;4.55;;;2.55;;
62616;SDS011;62539;51.190;6.808;2023-11-18T05:37:01;3.67;;;3.00;;
62616;SDS011;62539;51.190;6.808;2023-11-18T05:39:26;3.50;;;2.63;;
62616;SDS011;62539;51.190;6.808;2023-11-18T05:41:55;4.40;;;2.70;;
62616;SDS011;62539;51.190;6.808;2023-11-18T05:44:22;2.30;;;2.10;;
62616;SDS011;62539;51.190;6.808;2023-11-18T05:46:55;2.92;;;2.38;;
62616;SDS011;62539;51.190;6.808;2023-11-18T05:49:24;3.05;;;2.60;;
62616;SDS011;62539;51.190;6.808;2023-11-18T05:51:50;3.15;;;2.65;;
62616;SDS011;62539;51.190;6.808;2023-11-18T05:54:16;3.72;;;2.35;;
62616;SDS011;62539;51.190;6.808;2023-11-18T05:56:42;2.92;;;2.55;;
62616;SDS011;62539;51.190;6.808;2023-11-18T05:59:08;3.83;;;2.53;;
62616;SDS011;62539;51.190;6.808;2023-11-18T06:01:35;2.53;;;2.08;;
62616;SDS011;62539;51.190;6.808;2023-11-18T06:04:05;2.70;;;2.50;;
62616;SDS011;62539;51.190;6.808;2023-11-18T06:06:33;2.97;;;2.50;;
62616;SDS011;62539;51.190;6.808;2023-11-18T06:08:58;3.50;;;2.67;;
62616;SDS011;62539;51.190;6.808;2023-11-18T06:11:29;2.60;;;2.28;;
62616;SDS011;62539;51.190;6.808;2023-11-18T06:13:56;3.13;;;2.47;;
62616;SDS011;62539;51.190;6.808;2023-11-18T06:16:23;3.05;;;2.60;;
62616;SDS011;62539;51.190;6.808;2023-11-18T06:18:52;3.60;;;2.58;;
62616;SDS011;62539;51.190;6.808;2023-11-18T06:21:23;3.25;;;2.58;;
62616;SDS011;62539;51.190;6.808;2023-11-18T06:26:19;2.55;;;2.33;;
62616;SDS011;62539;51.190;6.808;2023-11-18T06:28:46;3.22;;;2.40;;
62616;SDS011;62539;51.190;6.808;2023-11-18T06:31:16;3.20;;;2.67;;
62616;SDS011;62539;51.190;6.808;2023-11-18T06:33:42;3.17;;;2.33;;
62616;SDS011;62539;51.190;6.808;2023-11-18T06:38:45;2.83;;;2.10;;
62616;SDS011;62539;51.190;6.808;2023-11-18T06:41:11;2.53;;;2.08;;
62616;SDS011;62539;51.190;6.808;2023-11-18T06:43:41;3.00;;;2.55;;
62616;SDS011;62539;51.190;6.808;2023-11-18T06:46:19;3.30;;;2.20;;
62616;SDS011;62539;51.190;6.808;2023-11-18T06:48:56;3.78;;;2.10;;
62616;SDS011;62539;51.190;6.808;2023-11-18T06:51:24;2.70;;;1.90;;
62616;SDS011;62539;51.190;6.808;2023-11-18T06:53:54;2.83;;;2.33;;
62616;SDS011;62539;51.190;6.808;2023-11-18T06:56:22;3.67;;;2.30;;
62616;SDS011;62539;51.190;6.808;2023-11-18T06:58:52;2.88;;;2.25;;
62616;SDS011;62539;51.190;6.808;2023-11-18T07:01:18;2.38;;;2.05;;
62616;SDS011;62539;51.190;6.808;2023-11-18T07:03:45;2.08;;;1.88;;
62616;SDS011;62539;51.190;6.808;2023-11-18T07:06:16;2.67;;;2.30;;
62616;SDS011;62539;51.190;6.808;2023-11-18T07:08:47;2.53;;;1.98;;
62616;SDS011;62539;51.190;6.808;2023-11-18T07:11:14;2.85;;;2.20;;
62616;SDS011;62539;51.190;6.808;2023-11-18T07:13:41;2.00;;;1.80;;
62616;SDS011;62539;51.190;6.808;2023-11-18T07:16:08;3.42;;;2.50;;
62616;SDS011;62539;51.190;6.808;2023-11-18T07:18:34;3.50;;;2.15;;
62616;SDS011;62539;51.190;6.808;2023-11-18T07:21:08;3.28;;;2.13;;
62616;SDS011;62539;51.190;6.808;2023-11-18T07:23:34;3.33;;;1.90;;
62616;SDS011;62539;51.190;6.808;2023-11-18T07:26:01;3.13;;;2.33;;
62616;SDS011;62539;51.190;6.808;2023-11-18T07:28:28;2.35;;;1.95;;
62616;SDS011;62539;51.190;6.808;2023-11-18T07:30:54;4.85;;;2.20;;
62616;SDS011;62539;51.190;6.808;2023-11-18T07:33:20;4.00;;;2.10;;
62616;SDS011;62539;51.190;6.808;2023-11-18T07:35:46;2.15;;;1.95;;
62616;SDS011;62539;51.190;6.808;2023-11-18T07:38:13;2.35;;;1.95;;
62616;SDS011;62539;51.190;6.808;2023-11-18T07:40:40;4.28;;;1.98;;
62616;SDS011;62539;51.190;6.808;2023-11-18T07:43:13;2.13;;;1.92;;
62616;SDS011;62539;51.190;6.808;2023-11-18T07:45:39;2.10;;;1.90;;
62616;SDS011;62539;51.190;6.808;2023-11-18T07:48:05;2.05;;;1.80;;
62616;SDS011;62539;51.190;6.808;2023-11-18T07:50:39;2.30;;;2.10;;
62616;SDS011;62539;51.190;6.808;2023-11-18T07:53:09;2.08;;;1.90;;
62616;SDS011;62539;51.190;6.808;2023-11-18T07:55:36;2.00;;;1.80;;
62616;SDS011;62539;51.190;6.808;2023-11-18T07:58:04;2.25;;;1.63;;
62616;SDS011;62539;51.190;6.808;2023-11-18T08:00:35;2.28;;;1.80;;
62616;SDS011;62539;51.190;6.808;2023-11-18T08:03:10;2.08;;;1.88;;
62616;SDS011;62539;51.190;6.808;2023-11-18T08:05:37;2.58;;;2.05;;
62616;SDS011;62539;51.190;6.808;2023-11-18T08:08:08;2.63;;;2.05;;
62616;SDS011;62539;51.190;6.808;2023-11-18T08:10:37;2.08;;;1.80;;
62616;SDS011;62539;51.190;6.808;2023-11-18T08:13:08;2.67;;;2.00;;
62616;SDS011;62539;51.190;6.808;2023-11-18T08:15:38;2.47;;;1.70;;
62616;SDS011;62539;51.190;6.808;2023-11-18T08:18:05;2.38;;;1.80;;
62616;SDS011;62539;51.190;6.808;2023-11-18T08:20:31;1.80;;;1.70;;
62616;SDS011;62539;51.190;6.808;2023-11-18T08:22:57;1.73;;;1.63;;
62616;SDS011;62539;51.190;6.808;2023-11-18T08:25:22;2.72;;;2.00;;
62616;SDS011;62539;51.190;6.808;2023-11-18T08:27:48;2.10;;;1.60;;
62616;SDS011;62539;51.190;6.808;2023-11-18T08:30:13;2.42;;;1.80;;
62616;SDS011;62539;51.190;6.808;2023-11-18T08:32:43;2.83;;;1.90;;
62616;SDS011;62539;51.190;6.808;2023-11-18T08:35:11;2.10;;;1.73;;
62616;SDS011;62539;51.190;6.808;2023-11-18T08:37:41;2.45;;;1.52;;
62616;SDS011;62539;51.190;6.808;2023-11-18T08:40:08;1.70;;;1.52;;
62616;SDS011;62539;51.190;6.808;2023-11-18T08:42:43;5.40;;;1.70;;
62616;SDS011;62539;51.190;6.808;2023-11-18T08:45:18;2.28;;;1.65;;
62616;SDS011;62539;51.190;6.808;2023-11-18T08:47:47;1.95;;;1.65;;
62616;SDS011;62539;51.190;6.808;2023-11-18T08:50:14;1.63;;;1.52;;
62616;SDS011;62539;51.190;6.808;2023-11-18T08:52:44;1.98;;;1.77;;
62616;SDS011;62539;51.190;6.808;2023-11-18T08:55:14;3.17;;;1.77;;
62616;SDS011;62539;51.190;6.808;2023-11-18T08:57:47;1.92;;;1.70;;
62616;SDS011;62539;51.190;6.808;2023-11-18T09:00:26;7.30;;;2.00;;
62616;SDS011;62539;51.190;6.808;2023-11-18T09:03:14;2.20;;;1.95;;
62616;SDS011;62539;51.190;6.808;2023-11-18T09:05:51;3.28;;;1.80;;
62616;SDS011;62539;51.190;6.808;2023-11-18T09:08:24;5.95;;;2.00;;
62616;SDS011;62539;51.190;6.808;2023-11-18T09:11:00;8.70;;;2.05;;
62616;SDS011;62539;51.190;6.808;2023-11-18T09:13:30;3.78;;;1.80;;
62616;SDS011;62539;51.190;6.808;2023-11-18T09:15:57;6.95;;;2.00;;
62616;SDS011;62539;51.190;6.808;2023-11-18T09:20:55;4.00;;;1.85;;
62616;SDS011;62539;51.190;6.808;2023-11-18T09:23:24;7.80;;;1.98;;
62616;SDS011;62539;51.190;6.808;2023-11-18T09:25:50;3.03;;;1.95;;
62616;SDS011;62539;51.190;6.808;2023-11-18T09:28:18;12.15;;;1.88;;
62616;SDS011;62539;51.190;6.808;2023-11-18T09:30:53;8.20;;;2.00;;
62616;SDS011;62539;51.190;6.808;2023-11-18T09:33:22;6.25;;;1.63;;
62616;SDS011;62539;51.190;6.808;2023-11-18T09:35:51;2.60;;;1.50;;
62616;SDS011;62539;51.190;6.808;2023-11-18T09:38:30;2.17;;;1.58;;
62616;SDS011;62539;51.190;6.808;2023-11-18T09:41:00;3.15;;;1.98;;
62616;SDS011;62539;51.190;6.808;2023-11-18T09:43:32;5.60;;;1.52;;
62616;SDS011;62539;51.190;6.808;2023-11-18T09:46:07;5.35;;;1.75;;
62616;SDS011;62539;51.190;6.808;2023-11-18T09:51:25;3.15;;;1.63;;
62616;SDS011;62539;51.190;6.808;2023-11-18T09:53:55;3.05;;;1.85;;
62616;SDS011;62539;51.190;6.808;2023-11-18T09:59:33;2.60;;;1.52;;
62616;SDS011;62539;51.190;6.808;2023-11-18T10:02:11;2.53;;;1.40;;
62616;SDS011;62539;51.190;6.808;2023-11-18T10:04:37;4.93;;;1.77;;
62616;SDS011;62539;51.190;6.808;2023-11-18T10:07:04;2.63;;;1.80;;
62616;SDS011;62539;51.190;6.808;2023-11-18T10:09:36;3.58;;;1.70;;
62616;SDS011;62539;51.190;6.808;2023-11-18T10:12:08;2.15;;;1.75;;
62616;SDS011;62539;51.190;6.808;2023-11-18T10:14:41;4.40;;;1.55;;
62616;SDS011;62539;51.190;6.808;2023-11-18T10:17:08;3.88;;;1.48;;
62616;SDS011;62539;51.190;6.808;2023-11-18T10:19:50;2.95;;;1.67;;
62616;SDS011;62539;51.190;6.808;2023-11-18T10:22:21;3.08;;;1.70;;
62616;SDS011;62539;51.190;6.808;2023-11-18T10:24:52;2.72;;;1.50;;
62616;SDS011;62539;51.190;6.808;2023-11-18T10:32:23;4.90;;;2.03;;
62616;SDS011;62539;51.190;6.808;2023-11-18T10:34:53;5.07;;;2.10;;
62616;SDS011;62539;51.190;6.808;2023-11-18T10:37:21;3.83;;;1.60;;
62616;SDS011;62539;51.190;6.808;2023-11-18T10:39:47;3.90;;;1.85;;
62616;SDS011;62539;51.190;6.808;2023-11-18T10:42:17;3.60;;;1.75;;
62616;SDS011;62539;51.190;6.808;2023-11-18T10:44:58;13.30;;;1.70;;
62616;SDS011;62539;51.190;6.808;2023-11-18T10:47:28;3.45;;;1.50;;
62616;SDS011;62539;51.190;6.808;2023-11-18T10:49:57;13.38;;;1.90;;
62616;SDS011;62539;51.190;6.808;2023-11-18T10:52:24;2.60;;;1.48;;
62616;SDS011;62539;51.190;6.808;2023-11-18T10:54:53;5.90;;;1.80;;
62616;SDS011;62539;51.190;6.808;2023-11-18T10:57:20;5.60;;;1.60;;
62616;SDS011;62539;51.190;6.808;2023-11-18T11:00:00;2.10;;;1.50;;
62616;SDS011;62539;51.190;6.808;2023-11-18T11:05:06;4.63;;;1.40;;
62616;SDS011;62539;51.190;6.808;2023-11-18T11:07:44;2.72;;;1.67;;
62616;SDS011;62539;51.190;6.808;2023-11-18T11:10:10;2.70;;;1.20;;
62616;SDS011;62539;51.190;6.808;2023-11-18T11:12:42;3.78;;;1.40;;
62616;SDS011;62539;51.190;6.808;2023-11-18T11:15:40;4.85;;;1.48;;
62616;SDS011;62539;51.190;6.808;2023-11-18T11:18:11;5.30;;;1.73;;
62616;SDS011;62539;51.190;6.808;2023-11-18T11:20:50;2.97;;;1.50;;
62616;SDS011;62539;51.190;6.808;2023-11-18T11:34:56;2.28;;;1.45;;
62616;SDS011;62539;51.190;6.808;2023-11-18T11:37:33;3.45;;;1.25;;
62616;SDS011;62539;51.190;6.808;2023-11-18T11:39:59;1.92;;;1.23;;
62616;SDS011;62539;51.190;6.808;2023-11-18T11:42:29;2.05;;;1.25;;
62616;SDS011;62539;51.190;6.808;2023-11-18T11:44:57;4.22;;;1.50;;
62616;SDS011;62539;51.190;6.808;2023-11-18T11:47:23;2.83;;;1.50;;
62616;SDS011;62539;51.190;6.808;2023-11-18T11:52:40;2.15;;;1.60;;
62616;SDS011;62539;51.190;6.808;2023-11-18T11:58:02;5.45;;;1.45;;
62616;SDS011;62539;51.190;6.808;2023-11-18T12:00:31;2.47;;;1.40;;
62616;SDS011;62539;51.190;6.808;2023-11-18T12:03:00;4.75;;;1.63;;
62616;SDS011;62539;51.190;6.808;2023-11-18T12:05:29;3.60;;;1.20;;
62616;SDS011;62539;51.190;6.808;2023-11-18T12:07:58;3.67;;;1.40;;
62616;SDS011;62539;51.190;6.808;2023-11-18T12:10:27;3.25;;;1.58;;
62616;SDS011;62539;51.190;6.808;2023-11-18T12:13:11;4.20;;;1.63;;
62616;SDS011;62539;51.190;6.808;2023-11-18T12:15:53;9.07;;;2.17;;
62616;SDS011;62539;51.190;6.808;2023-11-18T12:18:23;4.93;;;2.37;;
62616;SDS011;62539;51.190;6.808;2023-11-18T12:20:49;5.63;;;2.78;;
62616;SDS011;62539;51.190;6.808;2023-11-18T12:23:28;4.20;;;2.03;;
62616;SDS011;62539;51.190;6.808;2023-11-18T12:25:55;7.35;;;2.05;;
62616;SDS011;62539;51.190;6.808;2023-11-18T12:30:55;4.85;;;2.25;;
62616;SDS011;62539;51.190;6.808;2023-11-18T12:39:20;8.30;;;2.15;;
62616;SDS011;62539;51.190;6.808;2023-11-18T12:41:55;3.40;;;2.10;;
62616;SDS011;62539;51.190;6.808;2023-11-18T12:45:29;4.53;;;2.20;;
62616;SDS011;62539;51.190;6.808;2023-11-18T12:47:49;8.25;;;2.08;;
62616;SDS011;62539;51.190;6.808;2023-11-18T12:50:20;3.42;;;1.70;;
62616;SDS011;62539;51.190;6.808;2023-11-18T12:52:53;5.07;;;2.25;;
62616;SDS011;62539;51.190;6.808;2023-11-18T12:55:22;5.82;;;2.15;;
62616;SDS011;62539;51.190;6.808;2023-11-18T12:57:48;5.70;;;2.13;;
62616;SDS011;62539;51.190;6.808;2023-11-18T13:00:15;6.53;;;2.22;;
62616;SDS011;62539;51.190;6.808;2023-11-18T13:02:52;20.08;;;2.17;;
62616;SDS011;62539;51.190;6.808;2023-11-18T13:05:20;5.53;;;1.90;;
62616;SDS011;62539;51.190;6.808;2023-11-18T13:07:46;7.65;;;2.20;;
62616;SDS011;62539;51.190;6.808;2023-11-18T13:10:12;9.00;;;2.30;;
62616;SDS011;62539;51.190;6.808;2023-11-18T13:12:41;6.20;;;2.08;;
62616;SDS011;62539;51.190;6.808;2023-11-18T13:15:08;7.60;;;2.33;;
62616;SDS011;62539;51.190;6.808;2023-11-18T13:17:34;4.90;;;2.05;;
62616;SDS011;62539;51.190;6.808;2023-11-18T13:20:12;4.38;;;1.88;;
62616;SDS011;62539;51.190;6.808;2023-11-18T13:22:39;5.85;;;2.60;;
62616;SDS011;62539;51.190;6.808;2023-11-18T13:25:07;5.63;;;1.98;;
62616;SDS011;62539;51.190;6.808;2023-11-18T13:27:34;3.05;;;1.70;;
62616;SDS011;62539;51.190;6.808;2023-11-18T13:30:01;6.22;;;2.30;;
62616;SDS011;62539;51.190;6.808;2023-11-18T13:32:28;4.03;;;2.10;;
62616;SDS011;62539;51.190;6.808;2023-11-18T13:34:54;7.03;;;2.33;;
62616;SDS011;62539;51.190;6.808;2023-11-18T13:37:20;11.50;;;2.60;;
62616;SDS011;62539;51.190;6.808;2023-11-18T13:39:56;11.43;;;2.40;;
62616;SDS011;62539;51.190;6.808;2023-11-18T13:42:24;5.88;;;2.10;;
62616;SDS011;62539;51.190;6.808;2023-11-18T13:44:59;14.35;;;2.67;;
62616;SDS011;62539;51.190;6.808;2023-11-18T13:47:31;8.68;;;2.30;;
62616;SDS011;62539;51.190;6.808;2023-11-18T13:49:57;5.15;;;2.00;;
62616;SDS011;62539;51.190;6.808;2023-11-18T13:52:25;4.78;;;2.00;;
62616;SDS011;62539;51.190;6.808;2023-11-18T13:54:51;5.10;;;2.10;;
62616;SDS011;62539;51.190;6.808;2023-11-18T13:57:20;4.70;;;2.20;;
62616;SDS011;62539;51.190;6.808;2023-11-18T13:59:50;4.78;;;2.25;;
62616;SDS011;62539;51.190;6.808;2023-11-18T14:02:16;5.32;;;1.77;;
62616;SDS011;62539;51.190;6.808;2023-11-18T14:04:42;2.65;;;1.67;;
62616;SDS011;62539;51.190;6.808;2023-11-18T14:07:09;6.88;;;2.10;;
62616;SDS011;62539;51.190;6.808;2023-11-18T14:09:35;7.88;;;2.20;;
62616;SDS011;62539;51.190;6.808;2023-11-18T14:12:05;6.85;;;2.22;;
62616;SDS011;62539;51.190;6.808;2023-11-18T14:14:32;7.00;;;2.17;;
62616;SDS011;62539;51.190;6.808;2023-11-18T14:16:57;9.57;;;2.03;;
62616;SDS011;62539;51.190;6.808;2023-11-18T14:19:30;3.53;;;1.65;;
62616;SDS011;62539;51.190;6.808;2023-11-18T14:21:55;9.73;;;2.00;;
62616;SDS011;62539;51.190;6.808;2023-11-18T14:24:21;13.65;;;2.45;;
62616;SDS011;62539;51.190;6.808;2023-11-18T14:26:53;9.27;;;2.00;;
62616;SDS011;62539;51.190;6.808;2023-11-18T14:29:19;3.75;;;2.08;;
62616;SDS011;62539;51.190;6.808;2023-11-18T14:31:45;5.72;;;1.90;;
62616;SDS011;62539;51.190;6.808;2023-11-18T14:34:11;13.85;;;2.38;;
62616;SDS011;62539;51.190;6.808;2023-11-18T14:36:36;5.38;;;1.90;;
62616;SDS011;62539;51.190;6.808;2023-11-18T14:39:02;7.88;;;2.40;;
62616;SDS011;62539;51.190;6.808;2023-11-18T14:41:28;4.50;;;1.95;;
62616;SDS011;62539;51.190;6.808;2023-11-18T14:43:56;9.00;;;2.13;;
62616;SDS011;62539;51.190;6.808;2023-11-18T14:46:22;11.80;;;1.70;;
62616;SDS011;62539;51.190;6.808;2023-11-18T14:48:49;2.88;;;1.70;;
62616;SDS011;62539;51.190;6.808;2023-11-18T14:51:15;4.80;;;2.10;;
62616;SDS011;62539;51.190;6.808;2023-11-18T14:53:40;4.88;;;1.70;;
62616;SDS011;62539;51.190;6.808;2023-11-18T14:56:08;3.03;;;1.75;;
62616;SDS011;62539;51.190;6.808;2023-11-18T14:58:33;4.55;;;1.83;;
62616;SDS011;62539;51.190;6.808;2023-11-18T15:01:00;6.22;;;1.45;;
62616;SDS011;62539;51.190;6.808;2023-11-18T15:03:26;5.30;;;1.95;;
62616;SDS011;62539;51.190;6.808;2023-11-18T15:05:52;12.30;;;1.60;;
62616;SDS011;62539;51.190;6.808;2023-11-18T15:08:17;3.67;;;1.75;;
62616;SDS011;62539;51.190;6.808;2023-11-18T15:10:43;2.13;;;1.50;;
62616;SDS011;62539;51.190;6.808;2023-11-18T15:13:09;5.95;;;1.70;;
62616;SDS011;62539;51.190;6.808;2023-11-18T15:15:43;5.10;;;1.55;;
62616;SDS011;62539;51.190;6.808;2023-11-18T15:18:13;4.47;;;1.52;;
62616;SDS011;62539;51.190;6.808;2023-11-18T15:20:42;8.88;;;1.45;;
62616;SDS011;62539;51.190;6.808;2023-11-18T15:23:13;2.47;;;1.60;;
62616;SDS011;62539;51.190;6.808;2023-11-18T15:25:47;4.07;;;2.17;;
62616;SDS011;62539;51.190;6.808;2023-11-18T15:28:14;5.28;;;1.95;;
62616;SDS011;62539;51.190;6.808;2023-11-18T15:30:42;5.60;;;1.50;;
62616;SDS011;62539;51.190;6.808;2023-11-18T15:33:09;2.38;;;1.52;;
62616;SDS011;62539;51.190;6.808;2023-11-18T15:35:35;2.97;;;1.75;;
62616;SDS011;62539;51.190;6.808;2023-11-18T15:38:06;6.13;;;1.90;;
62616;SDS011;62539;51.190;6.808;2023-11-18T15:40:34;4.47;;;1.70;;
62616;SDS011;62539;51.190;6.808;2023-11-18T15:43:01;6.80;;;1.75;;